Orto / Ocaso: 07:24 / 17:03 UTC (Datos para LEAX 19-12-2018)

[fuente: ADDS]

METAR:


LEMG 191330Z 30007KT 9999 FEW038 BKN060 18/12 Q1023 NOSIG =
TAF LEMG 191100Z 1912/2012 30009KT 9999 FEW040 TX19/1915Z TN10/2007Z PROB40 TEMPO 1914/2011 30015G25KT LEGR 191330Z 28003KT 250V320 9999 FEW030 SCT045 13/09 Q1025 =
TAF LEGR 190800Z 1909/2009 VRB03KT 9999 SCT020 SCT050 TX14/1915Z TN04/2003Z PROB30 TEMPO 1909/1912 4000 RA BR BKN010 LEZL 191330Z 03007KT CAVOK 16/07 Q1026 NOSIG =
TAF LEZL 190800Z 1909/2009 01006KT CAVOK TX16/1915Z TN07/2005Z LEAM 191330Z 23013KT 9999 FEW015 18/13 Q1021 =
TAF LEAM 190800Z 1909/2009 24009KT 9999 SCT015 TX18/1914Z TN10/2004Z BECMG 1920/1922 07010KT LEBA 191330Z 35009KT 300V030 CAVOK 16/05 Q1025 =
TAF LEBA 191100Z 1912/1921 36006KT 9999 FEW025 LEJR 191330Z 35007KT 9999 SCT012 16/12 Q1026 =
TAF LEJR 191100Z 1912/2012 36008KT 9999 FEW020 TX17/1914Z TN07/2007Z GEML 191330Z 31006KT 270V340 CAVOK 21/09 Q1024 =
TAF GEML 190800Z 1909/2009 27009KT CAVOK TX21/1913Z TN11/2006Z LXGB 191250Z 27012KT 9999 FEW017 BKN050 BKN250 17/13 Q1025 NOSIG =
TAF AMD LXGB 191132Z 1912/1921 25010KT 9999 FEW008 SCT020 BKN030 BECMG 1912/1914 FEW015

TAFOR:


TAF LEMG 191100Z 1912/2012 30009KT 9999 FEW040 TX19/1915Z TN10/2007Z PROB40 TEMPO 1914/2011 30015G25KT =
TAF LEGR 190800Z 1909/2009 VRB03KT 9999 SCT020 SCT050 TX14/1915Z TN04/2003Z PROB30 TEMPO 1909/1912 4000 RA BR BKN010 =
TAF LEZL 190800Z 1909/2009 01006KT CAVOK TX16/1915Z TN07/2005Z =
TAF LEAM 190800Z 1909/2009 24009KT 9999 SCT015 TX18/1914Z TN10/2004Z BECMG 1920/1922 07010KT =
TAF LEBA 191100Z 1912/1921 36006KT 9999 FEW025 =
TAF LEJR 191100Z 1912/2012 36008KT 9999 FEW020 TX17/1914Z TN07/2007Z =
TAF GEML 190800Z 1909/2009 27009KT CAVOK TX21/1913Z TN11/2006Z =
TAF AMD LXGB 191132Z 1912/1921 25010KT 9999 FEW008 SCT020 BKN030 BECMG 1912/1914 FEW015 =

Recuerde que, aunque regularmente actualizada, la información meteorológica aquí presentada no debe ser utilizada para la planificación de vuelos. Si lo desea, puede consultar la información meteorológica adecuada, tanto de aeródromos como en ruta, por las vías oficialmente establecidas en la legislación -> AQUí